createdAt,value
2018-03-06T00:00:49.120Z,6.94
2018-03-06T00:01:49.961Z,6.9
2018-03-06T00:02:49.146Z,6.89
2018-03-06T00:03:49.072Z,6.87
2018-03-06T00:04:49.152Z,6.83
2018-03-06T00:05:49.136Z,6.81
2018-03-06T00:06:49.115Z,6.8
2018-03-06T00:07:49.129Z,6.79
2018-03-06T00:08:49.427Z,6.81
2018-03-06T00:09:56.142Z,6.76
2018-03-06T00:10:49.091Z,6.75
2018-03-06T00:11:49.098Z,6.75
2018-03-06T00:12:49.080Z,6.78
2018-03-06T00:13:54.986Z,6.81
2018-03-06T00:14:49.120Z,6.75
2018-03-06T00:15:49.094Z,6.75
2018-03-06T00:16:49.825Z,6.75
2018-03-06T00:17:54.801Z,6.75
2018-03-06T00:18:49.141Z,6.75
2018-03-06T00:19:49.146Z,6.75
2018-03-06T00:20:49.307Z,6.74
2018-03-06T00:21:57.036Z,6.74
2018-03-06T00:22:52.247Z,6.73
2018-03-06T00:23:52.141Z,6.7
2018-03-06T00:24:54.909Z,6.7
2018-03-06T00:25:49.148Z,6.69
2018-03-06T00:26:49.265Z,6.69
2018-03-06T00:27:51.269Z,6.7
2018-03-06T00:28:49.157Z,6.67
2018-03-06T00:29:49.184Z,6.68
2018-03-06T00:30:49.210Z,6.66
2018-03-06T00:31:53.938Z,6.66
2018-03-06T00:32:49.202Z,6.65
2018-03-06T00:33:49.228Z,6.67
2018-03-06T00:34:49.170Z,6.62
2018-03-06T00:35:51.658Z,6.62
2018-03-06T00:36:49.260Z,6.63
2018-03-06T00:37:49.231Z,6.63
2018-03-06T00:38:49.213Z,6.6
2018-03-06T00:39:55.796Z,6.59
2018-03-06T00:40:49.211Z,6.59
2018-03-06T00:41:49.217Z,6.61
2018-03-06T00:42:56.102Z,6.58
2018-03-06T00:43:49.253Z,6.56
2018-03-06T00:44:49.233Z,6.55
2018-03-06T00:45:52.250Z,6.49
2018-03-06T00:46:49.231Z,6.46
2018-03-06T00:47:49.233Z,6.45
2018-03-06T00:48:49.527Z,6.38
2018-03-06T00:49:55.430Z,6.35
2018-03-06T00:50:49.257Z,6.32
2018-03-06T00:51:49.247Z,6.32
2018-03-06T00:52:56.222Z,6.32
2018-03-06T00:53:49.282Z,6.33
2018-03-06T00:54:49.241Z,6.37
2018-03-06T00:55:49.229Z,6.33
2018-03-06T00:56:49.265Z,6.32
2018-03-06T00:57:49.276Z,6.32
2018-03-06T00:58:49.948Z,6.32
2018-03-06T00:59:56.654Z,6.3
2018-03-06T01:00:49.274Z,6.3
2018-03-06T01:01:49.332Z,6.32
2018-03-06T01:02:50.732Z,6.3
2018-03-06T01:03:49.265Z,6.25
2018-03-06T01:04:49.323Z,6.25
2018-03-06T01:05:49.262Z,6.25
2018-03-06T01:06:55.690Z,6.25
2018-03-06T01:07:49.322Z,6.25
2018-03-06T01:08:49.342Z,6.25
2018-03-06T01:09:49.312Z,6.23
2018-03-06T01:10:54.662Z,6.24
2018-03-06T01:11:49.295Z,6.21
2018-03-06T01:12:49.288Z,6.18
2018-03-06T01:13:53.488Z,6.19
2018-03-06T01:14:49.317Z,6.19
2018-03-06T01:15:49.286Z,6.16
2018-03-06T01:16:49.284Z,6.14
2018-03-06T01:17:55.677Z,6.12
2018-03-06T01:18:49.318Z,6.09
2018-03-06T01:19:49.340Z,6.08
2018-03-06T01:20:49.359Z,6.05
2018-03-06T01:21:54.905Z,6.04
2018-03-06T01:22:49.279Z,6
2018-03-06T01:23:49.322Z,6
2018-03-06T01:24:49.581Z,5.99
2018-03-06T01:25:49.323Z,5.96
2018-03-06T01:26:49.367Z,5.98
2018-03-06T01:27:49.339Z,5.99
2018-03-06T01:28:56.494Z,5.99
2018-03-06T01:29:49.338Z,6
2018-03-06T01:30:51.241Z,6
2018-03-06T01:31:55.204Z,6.02
2018-03-06T01:32:49.385Z,6
2018-03-06T01:33:49.487Z,5.98
2018-03-06T01:34:56.251Z,6.01
2018-03-06T01:35:49.364Z,5.97
2018-03-06T01:36:49.422Z,5.99
2018-03-06T01:37:49.817Z,5.96
2018-03-06T01:38:49.331Z,5.96
2018-03-06T01:39:49.413Z,5.98
2018-03-06T01:40:49.391Z,5.97
2018-03-06T01:41:55.070Z,5.98
2018-03-06T01:45:02.760Z,5.91
2018-03-06T01:46:04.873Z,5.84
2018-03-06T01:47:01.011Z,5.85
2018-03-06T01:48:00.261Z,5.83
2018-03-06T01:48:55.310Z,5.85
2018-03-06T01:49:52.357Z,5.85
2018-03-06T01:52:13.214Z,5.86
2018-03-06T01:52:16.457Z,5.83
2018-03-06T01:59:15.580Z,5.68
2018-03-06T02:00:12.826Z,5.63
2018-03-06T02:01:10.777Z,5.61
2018-03-06T02:02:05.505Z,5.63
2018-03-06T02:03:10.877Z,5.61
2018-03-06T02:04:22.603Z,5.59
2018-03-06T02:05:04.358Z,5.6
2018-03-06T02:06:23.905Z,5.55
2018-03-06T02:08:07.433Z,5.56
2018-03-06T02:09:07.692Z,5.57
2018-03-06T02:10:12.078Z,5.59
2018-03-06T02:11:13.048Z,5.58
2018-03-06T02:12:12.248Z,5.55
2018-03-06T02:13:45.760Z,5.54
2018-03-06T02:14:13.049Z,5.52
2018-03-06T02:15:23.970Z,5.51
2018-03-06T02:17:11.226Z,5.49
2018-03-06T02:18:13.837Z,5.46
2018-03-06T02:19:15.932Z,5.51
2018-03-06T02:20:06.191Z,5.52
2018-03-06T02:21:40.008Z,5.52
2018-03-06T02:23:05.391Z,5.56
2018-03-06T02:33:19.150Z,5.53
2018-03-06T02:35:29.168Z,5.35
2018-03-06T02:36:28.281Z,5.37
2018-03-06T02:37:42.625Z,5.36
2018-03-06T02:38:38.744Z,5.36
2018-03-06T02:39:27.106Z,5.35
2018-03-06T02:40:27.736Z,5.37
2018-03-06T02:41:22.820Z,5.37
2018-03-06T02:42:22.832Z,5.38
2018-03-06T02:43:28.076Z,5.37
2018-03-06T02:44:23.111Z,5.37
2018-03-06T02:45:22.827Z,5.38
2018-03-06T02:46:22.831Z,5.38
2018-03-06T02:47:27.491Z,5.38
2018-03-06T02:48:22.846Z,5.37
2018-03-06T02:49:22.870Z,5.4
2018-03-06T02:50:22.881Z,5.38
2018-03-06T02:51:22.863Z,5.37
2018-03-06T02:52:22.905Z,5.38
2018-03-06T02:53:22.894Z,5.37
2018-03-06T02:54:29.588Z,5.36
2018-03-06T02:55:22.913Z,5.35
2018-03-06T02:56:22.852Z,5.34
2018-03-06T02:57:22.890Z,5.33
2018-03-06T02:58:22.871Z,5.32
2018-03-06T02:59:22.896Z,5.32
2018-03-06T03:00:22.866Z,5.31
2018-03-06T03:01:27.738Z,5.32
2018-03-06T03:02:22.877Z,5.32
2018-03-06T03:03:22.906Z,5.32
2018-03-06T03:04:22.873Z,5.31
2018-03-06T03:05:29.055Z,5.24
2018-03-06T03:06:22.911Z,5.25
2018-03-06T03:07:22.939Z,5.2
2018-03-06T03:08:22.916Z,5.22
2018-03-06T03:09:28.713Z,5.21
2018-03-06T03:10:22.939Z,5.24
2018-03-06T03:11:22.945Z,5.25
2018-03-06T03:12:26.363Z,5.25
2018-03-06T03:13:23.101Z,5.27
2018-03-06T03:14:22.934Z,5.27
2018-03-06T03:15:22.981Z,5.26
2018-03-06T03:16:29.463Z,5.26
2018-03-06T03:17:22.992Z,5.25
2018-03-06T03:18:22.976Z,5.25
2018-03-06T03:19:22.976Z,5.24
2018-03-06T03:20:28.796Z,5.26
2018-03-06T03:21:23.263Z,5.23
2018-03-06T03:22:22.938Z,5.22
2018-03-06T03:23:25.797Z,5.22
2018-03-06T03:24:22.973Z,5.19
2018-03-06T03:25:22.933Z,5.19
2018-03-06T03:26:22.985Z,5.17
2018-03-06T03:27:23.014Z,5.2
2018-03-06T03:28:23.011Z,5.17
2018-03-06T03:29:22.970Z,5.17
2018-03-06T03:30:29.068Z,5.15
2018-03-06T03:31:23.000Z,5.14
2018-03-06T03:32:23.272Z,5.13
2018-03-06T03:33:28.050Z,5.09
2018-03-06T03:34:23.020Z,5.11
2018-03-06T03:35:23.050Z,5.06
2018-03-06T03:36:28.074Z,5.01
2018-03-06T03:37:23.043Z,4.94
2018-03-06T03:38:23.022Z,4.92
2018-03-06T03:39:29.919Z,4.88
2018-03-06T03:40:23.047Z,4.86
2018-03-06T03:41:22.993Z,4.83
2018-03-06T03:42:27.808Z,4.81
2018-03-06T03:43:23.055Z,4.77
2018-03-06T03:44:23.037Z,4.76
2018-03-06T03:45:23.034Z,4.72
2018-03-06T03:46:23.026Z,4.72
2018-03-06T03:47:23.120Z,4.72
2018-03-06T03:48:23.095Z,4.7
2018-03-06T03:49:28.472Z,4.7
2018-03-06T03:50:23.298Z,4.65
2018-03-06T03:51:23.075Z,4.64
2018-03-06T03:52:28.030Z,4.62
2018-03-06T03:53:23.099Z,4.59
2018-03-06T03:54:23.078Z,4.61
2018-03-06T03:55:27.641Z,4.59
2018-03-06T03:56:23.105Z,4.6
2018-03-06T03:57:23.081Z,4.57
2018-03-06T03:58:23.061Z,4.56
2018-03-06T03:59:27.591Z,4.53
2018-03-06T04:00:23.106Z,4.52
2018-03-06T04:01:23.087Z,4.51
2018-03-06T04:02:29.723Z,4.49
2018-03-06T04:03:23.071Z,4.47
2018-03-06T04:04:23.149Z,4.45
2018-03-06T04:05:23.292Z,4.48
2018-03-06T04:06:23.110Z,4.45
2018-03-06T04:07:23.100Z,4.42
2018-03-06T04:08:28.975Z,4.4
2018-03-06T04:09:23.114Z,4.4
2018-03-06T04:10:23.134Z,4.38
2018-03-06T04:11:28.316Z,4.38
2018-03-06T04:12:23.135Z,4.38
2018-03-06T04:13:23.106Z,4.39
2018-03-06T04:14:25.054Z,4.35
2018-03-06T04:15:23.151Z,4.36
2018-03-06T04:16:23.226Z,4.32
2018-03-06T04:17:23.156Z,4.31
2018-03-06T04:18:29.537Z,4.3
2018-03-06T04:19:23.117Z,4.27
2018-03-06T04:20:23.131Z,4.25
2018-03-06T04:21:28.651Z,4.25
2018-03-06T04:22:23.161Z,4.23
2018-03-06T04:23:23.180Z,4.21
2018-03-06T04:24:29.583Z,4.21
2018-03-06T04:25:23.191Z,4.2
2018-03-06T04:26:23.203Z,4.2
2018-03-06T04:27:23.200Z,4.17
2018-03-06T04:28:28.509Z,4.14
2018-03-06T04:29:23.206Z,4.2
2018-03-06T04:30:23.185Z,4.16
2018-03-06T04:31:29.046Z,4.14
2018-03-06T04:32:23.261Z,4.11
2018-03-06T04:33:23.243Z,4.12
2018-03-06T04:34:24.568Z,4.09
2018-03-06T04:35:23.228Z,4.08
2018-03-06T04:36:23.190Z,4.08
2018-03-06T04:37:23.242Z,4.08
2018-03-06T04:38:28.770Z,4.07
2018-03-06T04:39:23.312Z,4.08
2018-03-06T04:40:23.279Z,4.09
2018-03-06T04:41:28.516Z,4.08
2018-03-06T04:42:23.267Z,4.08
2018-03-06T04:43:23.325Z,4.1
2018-03-06T04:44:23.289Z,4.09
2018-03-06T04:45:28.929Z,4.13
2018-03-06T04:46:23.406Z,4.15
2018-03-06T04:47:23.246Z,4.14
2018-03-06T04:48:27.839Z,4.08
2018-03-06T04:49:23.266Z,4.08
2018-03-06T04:50:23.282Z,4.07
2018-03-06T04:51:23.269Z,4.07
2018-03-06T04:52:28.969Z,4.03
2018-03-06T04:53:23.279Z,4.05
2018-03-06T04:54:23.292Z,4.06
2018-03-06T04:55:24.527Z,4.06
2018-03-06T04:56:23.282Z,4.09
2018-03-06T04:57:23.315Z,4.08
2018-03-06T04:58:23.286Z,4.07
2018-03-06T04:59:25.168Z,4.07
2018-03-06T05:00:23.306Z,4.07
2018-03-06T05:01:23.385Z,4.05
2018-03-06T05:02:23.401Z,4.05
2018-03-06T05:03:29.022Z,4.05
2018-03-06T05:04:23.324Z,4.07
2018-03-06T05:05:23.291Z,4.02
2018-03-06T05:06:23.303Z,4.03
2018-03-06T05:07:29.435Z,4.03
2018-03-06T05:08:23.302Z,4.05
2018-03-06T05:09:23.311Z,4.07
2018-03-06T05:10:24.789Z,4.01
2018-03-06T05:11:23.502Z,4.06
2018-03-06T05:12:23.308Z,4.07
2018-03-06T05:13:28.617Z,4.05
2018-03-06T05:14:23.323Z,4.04
2018-03-06T05:15:23.326Z,4.02
2018-03-06T05:16:25.706Z,4.01
2018-03-06T05:17:23.355Z,4.02
2018-03-06T05:18:23.329Z,4.04
2018-03-06T05:19:23.378Z,4.06
2018-03-06T05:20:28.201Z,4.03
2018-03-06T05:21:23.421Z,4.03
2018-03-06T05:22:23.393Z,4.06
2018-03-06T05:23:23.348Z,4.06
2018-03-06T05:24:29.888Z,4.07
2018-03-06T05:25:23.395Z,4.07
2018-03-06T05:26:23.384Z,4.07
2018-03-06T05:27:23.359Z,4.07
2018-03-06T05:28:29.299Z,4.07
2018-03-06T05:29:23.437Z,4.07
2018-03-06T05:30:23.353Z,4.04
2018-03-06T05:31:23.399Z,4.05
2018-03-06T05:32:29.605Z,4
2018-03-06T05:33:23.426Z,3.99
2018-03-06T05:34:23.414Z,3.99
2018-03-06T05:35:29.668Z,3.97
2018-03-06T05:36:23.404Z,3.96
2018-03-06T05:37:23.428Z,3.94
2018-03-06T05:38:23.400Z,3.96
2018-03-06T05:39:30.218Z,3.97
2018-03-06T05:40:23.384Z,3.97
2018-03-06T05:41:23.420Z,3.98
2018-03-06T05:42:23.472Z,3.93
2018-03-06T05:43:28.732Z,3.95
2018-03-06T05:44:23.605Z,3.93
2018-03-06T05:45:23.507Z,3.9
2018-03-06T05:46:23.421Z,3.91
2018-03-06T05:47:29.679Z,3.9
2018-03-06T05:48:23.448Z,3.93
2018-03-06T05:49:23.445Z,3.9
2018-03-06T05:50:24.465Z,3.88
2018-03-06T05:51:23.450Z,3.87
2018-03-06T05:52:23.442Z,3.81
2018-03-06T05:53:23.436Z,3.83
2018-03-06T05:54:29.247Z,3.77
2018-03-06T05:55:23.439Z,3.79
2018-03-06T05:56:23.480Z,3.79
2018-03-06T05:57:23.442Z,3.82
2018-03-06T05:58:28.802Z,3.79
2018-03-06T05:59:23.508Z,3.83
2018-03-06T06:00:23.492Z,3.81
2018-03-06T06:01:23.483Z,3.84
2018-03-06T06:02:29.769Z,3.82
2018-03-06T06:03:23.478Z,3.8
2018-03-06T06:04:23.586Z,3.82
2018-03-06T06:05:30.051Z,3.8
2018-03-06T06:06:23.481Z,3.82
2018-03-06T06:07:23.501Z,3.79
2018-03-06T06:08:29.515Z,3.8
2018-03-06T06:09:23.617Z,3.8
2018-03-06T06:10:23.699Z,3.81
2018-03-06T06:11:29.118Z,3.8
2018-03-06T06:12:23.541Z,3.78
2018-03-06T06:13:23.467Z,3.8
2018-03-06T06:14:23.398Z,3.78
2018-03-06T06:15:23.444Z,3.78
2018-03-06T06:16:23.411Z,3.77
2018-03-06T06:17:23.421Z,3.76
2018-03-06T06:18:23.441Z,3.76
2018-03-06T06:19:23.431Z,3.75
2018-03-06T06:20:23.423Z,3.72
2018-03-06T06:21:23.668Z,3.71
2018-03-06T06:22:24.163Z,3.73
2018-03-06T06:23:23.426Z,3.74
2018-03-06T06:24:23.708Z,3.74
2018-03-06T06:25:23.526Z,3.72
2018-03-06T06:26:23.490Z,3.75
2018-03-06T06:27:23.512Z,3.75
2018-03-06T06:28:23.451Z,3.75
2018-03-06T06:29:23.613Z,3.74
2018-03-06T06:30:23.421Z,3.78
2018-03-06T06:31:23.452Z,3.78
2018-03-06T06:32:23.442Z,3.8
2018-03-06T06:33:23.473Z,3.76
2018-03-06T06:34:23.452Z,3.79
2018-03-06T06:35:24.551Z,3.75
2018-03-06T06:36:23.422Z,3.71
2018-03-06T06:37:23.606Z,3.74
2018-03-06T06:38:23.471Z,3.71
2018-03-06T06:39:23.501Z,3.69
2018-03-06T06:40:23.457Z,3.72
2018-03-06T06:41:23.495Z,3.7
2018-03-06T06:42:23.691Z,3.68
2018-03-06T06:43:23.490Z,3.67
2018-03-06T06:44:23.465Z,3.68
2018-03-06T06:45:23.468Z,3.7
2018-03-06T06:46:23.488Z,3.67
2018-03-06T06:47:23.490Z,3.67
2018-03-06T06:48:23.493Z,3.7
2018-03-06T06:49:23.505Z,3.68
2018-03-06T06:50:23.492Z,3.69
2018-03-06T06:51:23.502Z,3.65
2018-03-06T06:52:23.871Z,3.62
2018-03-06T06:53:23.518Z,3.57
2018-03-06T06:54:23.542Z,3.54
2018-03-06T06:55:23.523Z,3.49
2018-03-06T06:56:23.525Z,3.39
2018-03-06T06:57:23.518Z,3.35
2018-03-06T06:58:23.588Z,3.34
2018-03-06T06:59:23.529Z,3.34
2018-03-06T07:00:23.581Z,3.33
2018-03-06T07:01:23.543Z,3.24
2018-03-06T07:02:23.529Z,3.13
2018-03-06T07:03:23.555Z,3.06
2018-03-06T07:04:23.881Z,3.03
2018-03-06T07:05:23.554Z,3.09
2018-03-06T07:06:23.576Z,3.1
2018-03-06T07:07:23.571Z,3.16
2018-03-06T07:08:23.589Z,3.15
2018-03-06T07:09:23.597Z,3.2
2018-03-06T07:10:24.165Z,3.18
2018-03-06T07:11:23.599Z,3.13
2018-03-06T07:12:23.586Z,3.12
2018-03-06T07:13:23.572Z,3.06
2018-03-06T07:14:23.650Z,2.96
2018-03-06T07:15:23.576Z,2.9
2018-03-06T07:16:23.572Z,2.97
2018-03-06T07:17:23.598Z,3.02
2018-03-06T07:18:23.601Z,3.07
2018-03-06T07:19:23.583Z,3.02
2018-03-06T07:20:23.621Z,2.96
2018-03-06T07:21:23.600Z,2.94
2018-03-06T07:22:23.620Z,2.92
2018-03-06T07:23:23.609Z,2.92
2018-03-06T07:24:23.600Z,2.89
2018-03-06T07:25:23.619Z,2.89
2018-03-06T07:26:23.603Z,2.9
2018-03-06T07:27:23.621Z,2.95
2018-03-06T07:28:23.616Z,2.96
2018-03-06T07:29:23.619Z,2.99
2018-03-06T07:30:23.629Z,3.02
2018-03-06T07:31:23.624Z,3.06
2018-03-06T07:32:24.011Z,3.09
2018-03-06T07:33:23.627Z,3.06
2018-03-06T07:34:23.645Z,3.04
2018-03-06T07:35:23.628Z,3.06
2018-03-06T07:36:23.638Z,3.07
2018-03-06T07:37:23.666Z,3.09
2018-03-06T07:38:23.658Z,3.12
2018-03-06T07:39:23.650Z,3.15
2018-03-06T07:40:23.646Z,3.14
2018-03-06T07:41:23.646Z,3.16
2018-03-06T07:42:23.651Z,3.19
2018-03-06T07:43:23.668Z,3.17
2018-03-06T07:44:23.666Z,3.24
2018-03-06T07:45:23.958Z,3.25
2018-03-06T07:46:23.663Z,3.29
2018-03-06T07:47:23.653Z,3.35
2018-03-06T07:48:23.689Z,3.37
2018-03-06T07:49:23.672Z,3.4
2018-03-06T07:50:23.760Z,3.42
2018-03-06T07:51:23.779Z,3.46
2018-03-06T07:52:23.711Z,3.5
2018-03-06T07:53:23.679Z,3.51
2018-03-06T07:54:23.712Z,3.5
2018-03-06T07:55:23.702Z,3.56
2018-03-06T07:56:23.696Z,3.58
2018-03-06T07:57:23.699Z,3.6
2018-03-06T07:58:23.689Z,3.64
2018-03-06T07:59:23.729Z,3.64
2018-03-06T08:00:23.721Z,3.67
2018-03-06T08:01:23.696Z,3.67
2018-03-06T08:02:23.712Z,3.71
2018-03-06T08:03:24.086Z,3.73
2018-03-06T08:04:23.717Z,3.72
2018-03-06T08:05:23.794Z,3.75
2018-03-06T08:06:23.728Z,3.78
2018-03-06T08:07:23.738Z,3.78
2018-03-06T08:08:23.729Z,3.82
2018-03-06T08:09:23.759Z,3.85
2018-03-06T08:10:23.721Z,3.87
2018-03-06T08:11:23.770Z,3.88
2018-03-06T08:12:23.748Z,3.92
2018-03-06T08:13:23.751Z,3.92
2018-03-06T08:14:23.747Z,3.94
2018-03-06T08:15:23.785Z,3.94
2018-03-06T08:16:23.758Z,3.93
2018-03-06T08:17:23.770Z,3.95
2018-03-06T08:18:23.771Z,3.95
2018-03-06T08:19:23.765Z,3.98
2018-03-06T08:20:23.762Z,3.99
2018-03-06T08:21:23.780Z,4.03
2018-03-06T08:22:23.810Z,4.05
2018-03-06T08:23:24.052Z,4.08
2018-03-06T08:24:23.776Z,4.12
2018-03-06T08:25:23.801Z,4.17
2018-03-06T08:26:23.799Z,4.19
2018-03-06T08:27:23.806Z,4.22
2018-03-06T08:28:23.843Z,4.22
2018-03-06T08:29:23.819Z,4.22
2018-03-06T08:30:23.812Z,4.23
2018-03-06T08:31:23.810Z,4.26
2018-03-06T08:32:23.828Z,4.24
2018-03-06T08:33:23.836Z,4.25
2018-03-06T08:35:23.808Z,4.26
2018-03-06T08:36:23.851Z,4.27
2018-03-06T08:37:23.814Z,4.28
2018-03-06T08:38:23.833Z,4.28
2018-03-06T08:39:23.852Z,4.3
2018-03-06T08:40:23.830Z,4.31
2018-03-06T08:41:23.872Z,4.33
2018-03-06T08:42:23.846Z,4.37
2018-03-06T08:43:23.846Z,4.38
2018-03-06T08:44:23.861Z,4.43
2018-03-06T08:45:23.855Z,4.48
2018-03-06T08:46:23.910Z,4.5
2018-03-06T08:47:23.876Z,4.55
2018-03-06T08:48:23.869Z,4.6
2018-03-06T08:49:23.874Z,4.61
2018-03-06T08:50:23.885Z,4.64
2018-03-06T08:51:23.925Z,4.61
2018-03-06T08:52:24.318Z,4.65
2018-03-06T08:53:23.900Z,4.71
2018-03-06T08:54:23.900Z,4.73
2018-03-06T08:55:23.913Z,4.78
2018-03-06T08:56:23.920Z,4.84
2018-03-06T08:57:23.894Z,4.9
2018-03-06T08:58:23.903Z,4.92
2018-03-06T08:59:23.924Z,4.96
2018-03-06T09:00:23.918Z,4.98
2018-03-06T09:01:23.968Z,5.03
2018-03-06T09:02:23.945Z,5.09
2018-03-06T09:03:23.914Z,5.14
2018-03-06T09:04:23.960Z,5.15
2018-03-06T09:05:23.935Z,5.17
2018-03-06T09:06:23.967Z,5.21
2018-03-06T09:07:23.930Z,5.21
2018-03-06T09:08:23.973Z,5.21
2018-03-06T09:09:23.935Z,5.23
2018-03-06T09:10:23.982Z,5.27
2018-03-06T09:11:23.992Z,5.31
2018-03-06T09:12:23.963Z,5.3
2018-03-06T09:13:24.016Z,5.32
2018-03-06T09:14:23.968Z,5.33
2018-03-06T09:15:23.948Z,5.35
2018-03-06T09:16:23.954Z,5.35
2018-03-06T09:17:24.419Z,5.4
2018-03-06T09:18:23.957Z,5.43
2018-03-06T09:19:23.982Z,5.46
2018-03-06T09:20:23.959Z,5.48
2018-03-06T09:21:23.973Z,5.51
2018-03-06T09:22:24.024Z,5.54
2018-03-06T09:23:23.988Z,5.51
2018-03-06T09:24:24.334Z,5.53
2018-03-06T09:25:23.982Z,5.55
2018-03-06T09:26:23.978Z,5.6
2018-03-06T09:27:23.997Z,5.58
2018-03-06T09:28:23.988Z,5.58
2018-03-06T09:29:23.983Z,5.59
2018-03-06T09:30:23.980Z,5.6
2018-03-06T09:31:23.998Z,5.63
2018-03-06T09:32:24.027Z,5.65
2018-03-06T09:33:24.025Z,5.68
2018-03-06T09:34:24.027Z,5.68
2018-03-06T09:35:24.010Z,5.73
2018-03-06T09:36:24.011Z,5.77
2018-03-06T09:37:24.272Z,5.8
2018-03-06T09:38:24.004Z,5.82
2018-03-06T09:39:24.011Z,5.87
2018-03-06T09:40:24.020Z,5.9
2018-03-06T09:41:24.007Z,5.89
2018-03-06T09:42:24.046Z,5.95
2018-03-06T09:43:24.005Z,5.92
2018-03-06T09:44:24.009Z,5.98
2018-03-06T09:45:24.033Z,6.01
2018-03-06T09:46:24.019Z,6.05
2018-03-06T09:47:24.079Z,6.11
2018-03-06T09:48:24.024Z,6.17
2018-03-06T09:49:24.026Z,6.21
2018-03-06T09:50:24.095Z,6.19
2018-03-06T09:51:24.043Z,6.19
2018-03-06T09:52:24.285Z,6.23
2018-03-06T09:53:25.907Z,6.19
2018-03-06T09:54:24.050Z,6.2
2018-03-06T09:55:24.024Z,6.21
2018-03-06T09:56:24.224Z,6.22
2018-03-06T09:57:24.067Z,6.23
2018-03-06T09:58:24.051Z,6.15
2018-03-06T09:59:24.052Z,6.16
2018-03-06T10:00:24.056Z,6.19
2018-03-06T10:01:24.108Z,6.2
2018-03-06T10:02:24.105Z,6.1
2018-03-06T10:03:24.062Z,6.12
2018-03-06T10:04:24.074Z,6.18
2018-03-06T10:05:24.060Z,6.24
2018-03-06T10:06:24.074Z,6.32
2018-03-06T10:07:24.078Z,6.3
2018-03-06T10:08:24.118Z,6.3
2018-03-06T10:09:24.062Z,6.36
2018-03-06T10:10:24.072Z,6.4
2018-03-06T10:11:24.090Z,6.46
2018-03-06T10:12:24.135Z,6.53
2018-03-06T10:13:24.113Z,6.59
2018-03-06T10:14:24.110Z,6.62
2018-03-06T10:15:24.102Z,6.66
2018-03-06T10:16:24.111Z,6.7
2018-03-06T10:17:24.098Z,6.73
2018-03-06T10:18:24.108Z,6.78
2018-03-06T10:19:24.150Z,6.84
2018-03-06T10:20:24.113Z,6.89
2018-03-06T10:21:24.133Z,6.91
2018-03-06T10:22:24.409Z,6.91
2018-03-06T10:23:24.129Z,6.92
2018-03-06T10:24:24.178Z,6.97
2018-03-06T10:25:24.106Z,6.99
2018-03-06T10:26:24.110Z,6.97
2018-03-06T10:27:24.167Z,6.99
2018-03-06T10:28:24.139Z,6.99
2018-03-06T10:29:24.156Z,7.03
2018-03-06T10:30:24.185Z,7.05
2018-03-06T10:31:24.136Z,7.09
2018-03-06T10:32:24.149Z,7.13
2018-03-06T10:33:24.231Z,7.15
2018-03-06T10:34:24.426Z,7.18
2018-03-06T10:35:24.245Z,7.21
2018-03-06T10:36:24.163Z,7.22
2018-03-06T10:37:24.185Z,7.27
2018-03-06T10:38:24.163Z,7.31
2018-03-06T10:39:24.242Z,7.32
2018-03-06T10:40:24.170Z,7.35
2018-03-06T10:41:24.181Z,7.35
2018-03-06T10:42:24.174Z,7.36
2018-03-06T10:43:24.225Z,7.39
2018-03-06T10:44:24.215Z,7.34
2018-03-06T10:45:24.193Z,7.35
2018-03-06T10:46:24.205Z,7.36
2018-03-06T10:47:24.401Z,7.41
2018-03-06T10:48:24.227Z,7.43
2018-03-06T10:49:24.207Z,7.47
2018-03-06T10:50:24.213Z,7.44
2018-03-06T10:51:24.214Z,7.33
2018-03-06T10:52:24.217Z,7.24
2018-03-06T10:53:24.220Z,7.16
2018-03-06T10:54:24.241Z,7.19
2018-03-06T10:55:24.247Z,7.25
2018-03-06T10:56:24.285Z,7.28
2018-03-06T10:57:24.240Z,7.32
2018-03-06T10:58:24.277Z,7.36
2018-03-06T10:59:25.057Z,7.4
2018-03-06T11:00:24.242Z,7.38
2018-03-06T11:01:24.249Z,7.37
2018-03-06T11:02:24.246Z,7.32
2018-03-06T11:03:24.300Z,7.33
2018-03-06T11:04:24.579Z,7.36
2018-03-06T11:05:24.266Z,7.4
2018-03-06T11:06:24.255Z,7.42
2018-03-06T11:07:24.295Z,7.47
2018-03-06T11:08:24.277Z,7.47
2018-03-06T11:09:24.480Z,7.46
2018-03-06T11:10:24.330Z,7.48
2018-03-06T11:11:24.327Z,7.5
2018-03-06T11:12:24.302Z,7.47
2018-03-06T11:13:24.284Z,7.53
2018-03-06T11:14:24.887Z,7.55
2018-03-06T11:15:24.291Z,7.6
2018-03-06T11:16:24.296Z,7.61
2018-03-06T11:17:24.279Z,7.65
2018-03-06T11:18:24.697Z,7.67
2018-03-06T11:19:24.291Z,7.68
2018-03-06T11:20:24.305Z,7.72
2018-03-06T11:21:24.342Z,7.75
2018-03-06T11:22:24.395Z,7.79
2018-03-06T11:23:24.378Z,7.79
2018-03-06T11:24:24.326Z,7.76
2018-03-06T11:25:24.331Z,7.81
2018-03-06T11:26:24.310Z,7.85
2018-03-06T11:27:24.340Z,7.85
2018-03-06T11:28:24.324Z,7.83
2018-03-06T11:29:24.339Z,7.88
2018-03-06T11:30:24.379Z,7.84
2018-03-06T11:31:24.349Z,7.85
2018-03-06T11:32:24.357Z,7.89
2018-03-06T11:33:24.356Z,7.91
2018-03-06T11:34:24.790Z,7.95
2018-03-06T11:35:24.723Z,7.98
2018-03-06T11:36:24.336Z,8.03
2018-03-06T11:37:24.400Z,8.05
2018-03-06T11:38:24.343Z,8.09
2018-03-06T11:39:24.351Z,8.11
2018-03-06T11:40:32.055Z,8.15
2018-03-06T11:41:24.368Z,8.2
2018-03-06T11:42:24.715Z,8.18
2018-03-06T11:43:24.343Z,8.21
2018-03-06T11:44:24.370Z,8.21
2018-03-06T11:45:24.363Z,8.21
2018-03-06T11:46:24.370Z,8.23
2018-03-06T11:47:24.361Z,8.27
2018-03-06T11:48:24.394Z,8.29
2018-03-06T11:49:24.372Z,8.31
2018-03-06T11:50:24.378Z,8.34
2018-03-06T11:51:24.401Z,8.36
2018-03-06T11:52:24.371Z,8.38
2018-03-06T11:53:24.390Z,8.41
2018-03-06T11:54:27.871Z,8.42
2018-03-06T11:55:24.400Z,8.47
2018-03-06T11:56:24.403Z,8.5
2018-03-06T11:57:24.412Z,8.52
2018-03-06T11:58:24.493Z,8.53
2018-03-06T11:59:24.441Z,8.54
2018-03-06T12:00:24.396Z,8.54
2018-03-06T12:01:24.410Z,8.56
2018-03-06T12:02:24.396Z,8.57
2018-03-06T12:03:24.425Z,8.51
2018-03-06T12:04:24.411Z,8.52
2018-03-06T12:05:24.498Z,8.52
2018-03-06T12:06:24.419Z,8.56
2018-03-06T12:07:24.433Z,8.57
2018-03-06T12:08:24.430Z,8.6
2018-03-06T12:09:24.476Z,8.64
2018-03-06T12:10:24.459Z,8.65
2018-03-06T12:11:24.454Z,8.59
2018-03-06T12:12:24.442Z,8.57
2018-03-06T12:13:24.554Z,8.61
2018-03-06T12:14:24.453Z,8.65
2018-03-06T12:15:24.465Z,8.68
2018-03-06T12:16:24.451Z,8.72
2018-03-06T12:17:24.460Z,8.75
2018-03-06T12:18:24.446Z,8.75
2018-03-06T12:19:24.486Z,8.71
2018-03-06T12:20:24.438Z,8.73
2018-03-06T12:21:24.772Z,8.78
2018-03-06T12:22:24.463Z,8.8
2018-03-06T12:23:24.479Z,8.83
2018-03-06T12:24:24.494Z,8.86
2018-03-06T12:25:24.486Z,8.91
2018-03-06T12:26:24.494Z,8.91
2018-03-06T12:27:24.526Z,8.92
2018-03-06T12:28:24.497Z,8.93
2018-03-06T12:29:24.470Z,8.91
2018-03-06T12:30:24.570Z,8.9
2018-03-06T12:31:24.517Z,8.92
2018-03-06T12:32:24.550Z,8.95
2018-03-06T12:33:24.665Z,8.95
2018-03-06T12:34:24.643Z,8.97
2018-03-06T12:35:24.504Z,9.01
2018-03-06T12:36:24.505Z,9.02
2018-03-06T12:37:24.513Z,9.03
2018-03-06T12:38:24.536Z,8.95
2018-03-06T12:39:24.546Z,8.99
2018-03-06T12:40:24.506Z,9.04
2018-03-06T12:41:24.608Z,9.05
2018-03-06T12:42:24.538Z,9.09
2018-03-06T12:43:24.538Z,9.1
2018-03-06T12:44:24.532Z,9.14
2018-03-06T12:45:24.540Z,9.15
2018-03-06T12:46:24.528Z,9.16
2018-03-06T12:47:24.525Z,9.17
2018-03-06T12:48:24.544Z,9.2
2018-03-06T12:49:24.559Z,9.23
2018-03-06T12:50:24.571Z,9.24
2018-03-06T12:51:24.555Z,9.28
2018-03-06T12:52:24.548Z,9.28
2018-03-06T12:53:24.548Z,9.3
2018-03-06T12:54:24.562Z,9.31
2018-03-06T12:55:24.573Z,9.3
2018-03-06T12:56:24.553Z,9.27
2018-03-06T12:57:24.572Z,9.22
2018-03-06T12:58:24.574Z,9.22
2018-03-06T12:59:24.635Z,9.24
2018-03-06T13:00:24.577Z,9.28
2018-03-06T13:01:24.620Z,9.31
2018-03-06T13:02:24.614Z,9.33
2018-03-06T13:03:24.580Z,9.35
2018-03-06T13:04:24.607Z,9.38
2018-03-06T13:05:24.584Z,9.41
2018-03-06T13:06:24.611Z,9.43
2018-03-06T13:07:24.604Z,9.42
2018-03-06T13:08:24.608Z,9.43
2018-03-06T13:09:24.607Z,9.48
2018-03-06T13:10:24.591Z,9.5
2018-03-06T13:11:24.609Z,9.51
2018-03-06T13:12:24.609Z,9.52
2018-03-06T13:13:24.648Z,9.54
2018-03-06T13:14:24.724Z,9.54
2018-03-06T13:15:24.617Z,9.53
2018-03-06T13:16:24.621Z,9.54
2018-03-06T13:17:24.645Z,9.56
2018-03-06T13:18:24.647Z,9.59
2018-03-06T13:19:24.681Z,9.58
2018-03-06T13:20:24.730Z,9.61
2018-03-06T13:21:24.642Z,9.63
2018-03-06T13:22:24.657Z,9.61
2018-03-06T13:23:24.669Z,9.65
2018-03-06T13:24:24.736Z,9.62
2018-03-06T13:25:24.694Z,9.66
2018-03-06T13:26:24.688Z,9.69
2018-03-06T13:27:24.696Z,9.73
2018-03-06T13:28:24.758Z,9.75
2018-03-06T13:29:24.721Z,9.78
2018-03-06T13:30:24.701Z,9.81
2018-03-06T13:31:24.703Z,9.82
2018-03-06T13:32:24.715Z,9.83
2018-03-06T13:33:24.722Z,9.82
2018-03-06T13:34:24.976Z,9.84
2018-03-06T13:35:24.719Z,9.85
2018-03-06T13:36:24.708Z,9.88
2018-03-06T13:37:24.708Z,9.93
2018-03-06T13:38:24.721Z,9.94
2018-03-06T13:39:24.750Z,9.95
2018-03-06T13:40:24.722Z,9.98
2018-03-06T13:41:24.748Z,9.99
2018-03-06T13:42:24.710Z,10.03
2018-03-06T13:43:24.751Z,10.04
2018-03-06T13:44:24.737Z,10.05